sensor_id;sensor_type;location;lat;lon;timestamp;P1;durP1;ratioP1;P2;durP2;ratioP2
44197;SDS011;30157;55.512;37.764;2022-07-30T00:02:22;6.28;;;2.80;;
44197;SDS011;30157;55.512;37.764;2022-07-30T00:04:48;4.63;;;2.95;;
44197;SDS011;30157;55.512;37.764;2022-07-30T00:07:13;3.78;;;2.70;;
44197;SDS011;30157;55.512;37.764;2022-07-30T00:09:39;4.57;;;2.75;;
44197;SDS011;30157;55.512;37.764;2022-07-30T00:12:05;4.85;;;2.60;;
44197;SDS011;30157;55.512;37.764;2022-07-30T00:14:32;4.93;;;2.50;;
44197;SDS011;30157;55.512;37.764;2022-07-30T00:16:59;4.07;;;2.40;;
44197;SDS011;30157;55.512;37.764;2022-07-30T00:19:27;5.43;;;2.60;;
44197;SDS011;30157;55.512;37.764;2022-07-30T00:21:53;4.63;;;2.60;;
44197;SDS011;30157;55.512;37.764;2022-07-30T00:24:19;3.80;;;2.53;;
44197;SDS011;30157;55.512;37.764;2022-07-30T00:26:46;6.28;;;3.03;;
44197;SDS011;30157;55.512;37.764;2022-07-30T00:29:11;5.43;;;3.17;;
44197;SDS011;30157;55.512;37.764;2022-07-30T00:31:37;4.60;;;2.88;;
44197;SDS011;30157;55.512;37.764;2022-07-30T00:34:03;5.05;;;2.50;;
44197;SDS011;30157;55.512;37.764;2022-07-30T00:36:29;6.15;;;2.92;;
44197;SDS011;30157;55.512;37.764;2022-07-30T00:38:55;5.38;;;2.67;;
44197;SDS011;30157;55.512;37.764;2022-07-30T00:41:21;4.72;;;2.72;;
44197;SDS011;30157;55.512;37.764;2022-07-30T00:43:47;4.30;;;2.88;;
44197;SDS011;30157;55.512;37.764;2022-07-30T00:46:12;6.25;;;2.85;;
44197;SDS011;30157;55.512;37.764;2022-07-30T00:48:39;4.68;;;2.95;;
44197;SDS011;30157;55.512;37.764;2022-07-30T00:51:05;5.07;;;2.88;;
44197;SDS011;30157;55.512;37.764;2022-07-30T00:53:31;5.93;;;2.85;;
44197;SDS011;30157;55.512;37.764;2022-07-30T00:55:57;4.63;;;2.70;;
44197;SDS011;30157;55.512;37.764;2022-07-30T00:58:24;6.55;;;2.58;;
44197;SDS011;30157;55.512;37.764;2022-07-30T01:00:50;4.22;;;2.80;;
44197;SDS011;30157;55.512;37.764;2022-07-30T01:03:16;4.68;;;2.67;;
44197;SDS011;30157;55.512;37.764;2022-07-30T01:05:42;6.70;;;2.80;;
44197;SDS011;30157;55.512;37.764;2022-07-30T01:08:08;5.28;;;2.53;;
44197;SDS011;30157;55.512;37.764;2022-07-30T01:10:33;4.75;;;2.80;;
44197;SDS011;30157;55.512;37.764;2022-07-30T01:12:59;4.43;;;2.78;;
44197;SDS011;30157;55.512;37.764;2022-07-30T01:15:26;5.68;;;2.90;;
44197;SDS011;30157;55.512;37.764;2022-07-30T01:17:53;3.75;;;2.42;;
44197;SDS011;30157;55.512;37.764;2022-07-30T01:20:47;4.50;;;2.85;;
44197;SDS011;30157;55.512;37.764;2022-07-30T01:23:35;4.25;;;2.60;;
44197;SDS011;30157;55.512;37.764;2022-07-30T01:26:08;4.18;;;2.70;;
44197;SDS011;30157;55.512;37.764;2022-07-30T01:28:41;4.97;;;2.50;;
44197;SDS011;30157;55.512;37.764;2022-07-30T01:31:10;4.40;;;2.50;;
44197;SDS011;30157;55.512;37.764;2022-07-30T01:33:39;6.38;;;2.83;;
44197;SDS011;30157;55.512;37.764;2022-07-30T01:36:10;4.45;;;2.60;;
44197;SDS011;30157;55.512;37.764;2022-07-30T01:38:39;6.53;;;2.88;;
44197;SDS011;30157;55.512;37.764;2022-07-30T01:41:07;14.55;;;8.05;;
44197;SDS011;30157;55.512;37.764;2022-07-30T01:43:35;6.10;;;3.05;;
44197;SDS011;30157;55.512;37.764;2022-07-30T01:46:02;5.13;;;3.00;;
44197;SDS011;30157;55.512;37.764;2022-07-30T01:48:31;3.75;;;2.50;;
44197;SDS011;30157;55.512;37.764;2022-07-30T01:51:01;5.28;;;2.72;;
44197;SDS011;30157;55.512;37.764;2022-07-30T01:53:30;5.55;;;3.00;;
44197;SDS011;30157;55.512;37.764;2022-07-30T01:55:59;3.40;;;2.30;;
44197;SDS011;30157;55.512;37.764;2022-07-30T01:58:27;3.67;;;2.63;;
44197;SDS011;30157;55.512;37.764;2022-07-30T02:01:03;6.97;;;2.42;;
44197;SDS011;30157;55.512;37.764;2022-07-30T02:03:31;6.53;;;3.45;;
44197;SDS011;30157;55.512;37.764;2022-07-30T02:06:07;5.50;;;3.00;;
44197;SDS011;30157;55.512;37.764;2022-07-30T02:08:40;5.50;;;3.75;;
44197;SDS011;30157;55.512;37.764;2022-07-30T02:11:17;7.43;;;3.50;;
44197;SDS011;30157;55.512;37.764;2022-07-30T02:14:02;7.38;;;3.78;;
44197;SDS011;30157;55.512;37.764;2022-07-30T02:16:35;5.40;;;3.42;;
44197;SDS011;30157;55.512;37.764;2022-07-30T02:21:37;4.90;;;3.50;;
44197;SDS011;30157;55.512;37.764;2022-07-30T02:24:07;7.13;;;3.80;;
44197;SDS011;30157;55.512;37.764;2022-07-30T02:26:37;8.55;;;4.05;;
44197;SDS011;30157;55.512;37.764;2022-07-30T02:29:05;8.77;;;3.95;;
44197;SDS011;30157;55.512;37.764;2022-07-30T02:31:33;7.05;;;3.70;;
44197;SDS011;30157;55.512;37.764;2022-07-30T02:34:02;6.30;;;3.63;;
44197;SDS011;30157;55.512;37.764;2022-07-30T02:36:30;4.90;;;3.38;;
44197;SDS011;30157;55.512;37.764;2022-07-30T02:38:57;8.77;;;3.63;;
44197;SDS011;30157;55.512;37.764;2022-07-30T02:41:26;7.82;;;3.80;;
44197;SDS011;30157;55.512;37.764;2022-07-30T02:43:54;6.10;;;3.03;;
44197;SDS011;30157;55.512;37.764;2022-07-30T02:46:22;6.72;;;3.35;;
44197;SDS011;30157;55.512;37.764;2022-07-30T02:49:07;5.35;;;3.33;;
44197;SDS011;30157;55.512;37.764;2022-07-30T02:51:37;5.07;;;3.30;;
44197;SDS011;30157;55.512;37.764;2022-07-30T02:54:04;4.57;;;3.05;;
44197;SDS011;30157;55.512;37.764;2022-07-30T02:56:32;4.97;;;3.15;;
44197;SDS011;30157;55.512;37.764;2022-07-30T02:59:00;5.82;;;3.30;;
44197;SDS011;30157;55.512;37.764;2022-07-30T03:01:29;5.40;;;3.20;;
44197;SDS011;30157;55.512;37.764;2022-07-30T03:03:57;4.53;;;3.08;;
44197;SDS011;30157;55.512;37.764;2022-07-30T03:06:24;5.93;;;3.38;;
44197;SDS011;30157;55.512;37.764;2022-07-30T03:08:51;4.93;;;3.03;;
44197;SDS011;30157;55.512;37.764;2022-07-30T03:11:19;8.15;;;3.20;;
44197;SDS011;30157;55.512;37.764;2022-07-30T03:13:46;6.25;;;3.10;;
44197;SDS011;30157;55.512;37.764;2022-07-30T03:16:12;5.60;;;2.97;;
44197;SDS011;30157;55.512;37.764;2022-07-30T03:18:41;4.50;;;2.95;;
44197;SDS011;30157;55.512;37.764;2022-07-30T03:21:08;5.18;;;3.17;;
44197;SDS011;30157;55.512;37.764;2022-07-30T03:23:38;5.40;;;2.95;;
44197;SDS011;30157;55.512;37.764;2022-07-30T03:26:06;4.60;;;3.20;;
44197;SDS011;30157;55.512;37.764;2022-07-30T03:28:35;3.22;;;2.80;;
44197;SDS011;30157;55.512;37.764;2022-07-30T03:31:03;5.03;;;2.83;;
44197;SDS011;30157;55.512;37.764;2022-07-30T03:33:34;5.03;;;2.80;;
44197;SDS011;30157;55.512;37.764;2022-07-30T03:36:01;4.00;;;2.80;;
44197;SDS011;30157;55.512;37.764;2022-07-30T03:38:28;3.97;;;2.40;;
44197;SDS011;30157;55.512;37.764;2022-07-30T03:40:56;4.10;;;2.60;;
44197;SDS011;30157;55.512;37.764;2022-07-30T03:43:23;5.47;;;2.40;;
44197;SDS011;30157;55.512;37.764;2022-07-30T03:45:51;4.75;;;2.67;;
44197;SDS011;30157;55.512;37.764;2022-07-30T03:48:19;7.45;;;2.70;;
44197;SDS011;30157;55.512;37.764;2022-07-30T03:50:47;4.70;;;2.80;;
44197;SDS011;30157;55.512;37.764;2022-07-30T03:53:14;4.38;;;2.17;;
44197;SDS011;30157;55.512;37.764;2022-07-30T03:56:01;5.05;;;2.60;;
44197;SDS011;30157;55.512;37.764;2022-07-30T03:58:47;3.65;;;2.40;;
44197;SDS011;30157;55.512;37.764;2022-07-30T04:01:13;4.25;;;2.30;;
44197;SDS011;30157;55.512;37.764;2022-07-30T04:03:39;3.80;;;2.50;;
44197;SDS011;30157;55.512;37.764;2022-07-30T04:06:05;4.53;;;2.33;;
44197;SDS011;30157;55.512;37.764;2022-07-30T04:08:31;3.13;;;2.20;;
44197;SDS011;30157;55.512;37.764;2022-07-30T04:10:57;4.13;;;2.40;;
44197;SDS011;30157;55.512;37.764;2022-07-30T04:14:01;3.42;;;2.22;;
44197;SDS011;30157;55.512;37.764;2022-07-30T04:19:17;4.70;;;2.42;;
44197;SDS011;30157;55.512;37.764;2022-07-30T04:21:46;3.38;;;2.58;;
44197;SDS011;30157;55.512;37.764;2022-07-30T04:24:15;5.57;;;2.20;;
44197;SDS011;30157;55.512;37.764;2022-07-30T04:26:42;3.83;;;2.40;;
44197;SDS011;30157;55.512;37.764;2022-07-30T04:29:09;3.97;;;2.05;;
44197;SDS011;30157;55.512;37.764;2022-07-30T04:31:35;4.20;;;2.20;;
44197;SDS011;30157;55.512;37.764;2022-07-30T04:34:14;2.50;;;1.73;;
44197;SDS011;30157;55.512;37.764;2022-07-30T04:36:40;3.35;;;2.28;;
44197;SDS011;30157;55.512;37.764;2022-07-30T04:39:07;4.20;;;2.38;;
44197;SDS011;30157;55.512;37.764;2022-07-30T04:41:34;3.40;;;2.47;;
44197;SDS011;30157;55.512;37.764;2022-07-30T04:44:23;3.42;;;2.10;;
44197;SDS011;30157;55.512;37.764;2022-07-30T04:47:09;4.25;;;2.17;;
44197;SDS011;30157;55.512;37.764;2022-07-30T04:49:45;3.20;;;1.80;;
44197;SDS011;30157;55.512;37.764;2022-07-30T04:52:12;3.22;;;1.85;;
44197;SDS011;30157;55.512;37.764;2022-07-30T04:54:44;3.97;;;1.92;;
44197;SDS011;30157;55.512;37.764;2022-07-30T04:57:14;4.55;;;2.00;;
44197;SDS011;30157;55.512;37.764;2022-07-30T04:59:42;2.17;;;1.60;;
44197;SDS011;30157;55.512;37.764;2022-07-30T05:02:08;3.85;;;1.95;;
44197;SDS011;30157;55.512;37.764;2022-07-30T05:04:36;4.88;;;2.10;;
44197;SDS011;30157;55.512;37.764;2022-07-30T05:07:04;3.13;;;2.00;;
44197;SDS011;30157;55.512;37.764;2022-07-30T05:09:32;3.63;;;3.20;;
44197;SDS011;30157;55.512;37.764;2022-07-30T05:11:58;3.50;;;2.47;;
44197;SDS011;30157;55.512;37.764;2022-07-30T05:14:25;4.25;;;2.55;;
44197;SDS011;30157;55.512;37.764;2022-07-30T05:16:51;5.68;;;3.00;;
44197;SDS011;30157;55.512;37.764;2022-07-30T05:19:20;4.85;;;1.95;;
44197;SDS011;30157;55.512;37.764;2022-07-30T05:21:48;3.45;;;1.83;;
44197;SDS011;30157;55.512;37.764;2022-07-30T05:24:14;2.97;;;1.75;;
44197;SDS011;30157;55.512;37.764;2022-07-30T05:26:47;3.25;;;1.60;;
44197;SDS011;30157;55.512;37.764;2022-07-30T05:29:16;3.65;;;1.80;;
44197;SDS011;30157;55.512;37.764;2022-07-30T05:31:46;2.88;;;1.70;;
44197;SDS011;30157;55.512;37.764;2022-07-30T05:34:14;8.02;;;1.80;;
44197;SDS011;30157;55.512;37.764;2022-07-30T05:36:42;3.78;;;1.60;;
44197;SDS011;30157;55.512;37.764;2022-07-30T05:39:10;3.97;;;1.60;;
44197;SDS011;30157;55.512;37.764;2022-07-30T05:41:56;3.42;;;1.77;;
44197;SDS011;30157;55.512;37.764;2022-07-30T05:44:45;2.72;;;1.90;;
44197;SDS011;30157;55.512;37.764;2022-07-30T05:47:11;2.97;;;1.67;;
44197;SDS011;30157;55.512;37.764;2022-07-30T05:49:38;3.35;;;2.03;;
44197;SDS011;30157;55.512;37.764;2022-07-30T05:52:09;2.20;;;1.52;;
44197;SDS011;30157;55.512;37.764;2022-07-30T05:54:35;3.90;;;2.60;;
44197;SDS011;30157;55.512;37.764;2022-07-30T05:57:23;2.33;;;1.45;;
44197;SDS011;30157;55.512;37.764;2022-07-30T05:59:49;3.08;;;1.33;;
44197;SDS011;30157;55.512;37.764;2022-07-30T06:02:38;2.72;;;1.40;;
44197;SDS011;30157;55.512;37.764;2022-07-30T06:05:13;6.20;;;1.95;;
44197;SDS011;30157;55.512;37.764;2022-07-30T06:07:42;1.60;;;1.33;;
44197;SDS011;30157;55.512;37.764;2022-07-30T06:10:18;2.75;;;1.55;;
44197;SDS011;30157;55.512;37.764;2022-07-30T06:12:45;2.75;;;2.25;;
44197;SDS011;30157;55.512;37.764;2022-07-30T06:15:12;2.55;;;1.73;;
44197;SDS011;30157;55.512;37.764;2022-07-30T06:17:40;2.70;;;1.90;;
44197;SDS011;30157;55.512;37.764;2022-07-30T06:20:18;3.00;;;1.60;;
44197;SDS011;30157;55.512;37.764;2022-07-30T06:23:05;2.30;;;1.42;;
44197;SDS011;30157;55.512;37.764;2022-07-30T06:25:49;3.22;;;1.50;;
44197;SDS011;30157;55.512;37.764;2022-07-30T06:28:15;2.97;;;1.25;;
44197;SDS011;30157;55.512;37.764;2022-07-30T06:30:43;1.98;;;1.10;;
44197;SDS011;30157;55.512;37.764;2022-07-30T06:33:14;3.35;;;1.30;;
44197;SDS011;30157;55.512;37.764;2022-07-30T06:35:40;2.15;;;1.20;;
44197;SDS011;30157;55.512;37.764;2022-07-30T06:38:08;1.60;;;1.20;;
44197;SDS011;30157;55.512;37.764;2022-07-30T06:40:47;3.05;;;1.23;;
44197;SDS011;30157;55.512;37.764;2022-07-30T06:43:16;2.65;;;1.40;;
44197;SDS011;30157;55.512;37.764;2022-07-30T06:46:10;2.10;;;1.27;;
44197;SDS011;30157;55.512;37.764;2022-07-30T06:48:43;2.28;;;1.30;;
44197;SDS011;30157;55.512;37.764;2022-07-30T06:51:10;4.05;;;1.33;;
44197;SDS011;30157;55.512;37.764;2022-07-30T06:53:37;2.67;;;1.42;;
44197;SDS011;30157;55.512;37.764;2022-07-30T06:56:12;2.20;;;1.30;;
44197;SDS011;30157;55.512;37.764;2022-07-30T06:58:52;1.75;;;1.20;;
44197;SDS011;30157;55.512;37.764;2022-07-30T07:01:50;3.83;;;1.60;;
44197;SDS011;30157;55.512;37.764;2022-07-30T07:04:19;2.55;;;1.40;;
44197;SDS011;30157;55.512;37.764;2022-07-30T07:06:45;2.50;;;1.25;;
44197;SDS011;30157;55.512;37.764;2022-07-30T07:09:15;1.40;;;1.00;;
44197;SDS011;30157;55.512;37.764;2022-07-30T07:11:52;2.72;;;1.10;;
44197;SDS011;30157;55.512;37.764;2022-07-30T07:14:18;1.73;;;1.10;;
44197;SDS011;30157;55.512;37.764;2022-07-30T07:16:44;2.28;;;0.95;;
44197;SDS011;30157;55.512;37.764;2022-07-30T07:19:33;1.58;;;1.00;;
44197;SDS011;30157;55.512;37.764;2022-07-30T07:21:59;1.98;;;1.10;;
44197;SDS011;30157;55.512;37.764;2022-07-30T07:24:24;3.53;;;1.00;;
44197;SDS011;30157;55.512;37.764;2022-07-30T07:26:57;2.03;;;0.90;;
44197;SDS011;30157;55.512;37.764;2022-07-30T07:29:24;1.20;;;0.90;;
44197;SDS011;30157;55.512;37.764;2022-07-30T07:31:50;1.95;;;1.00;;
44197;SDS011;30157;55.512;37.764;2022-07-30T07:34:17;1.90;;;1.00;;
44197;SDS011;30157;55.512;37.764;2022-07-30T07:36:42;2.35;;;0.90;;
44197;SDS011;30157;55.512;37.764;2022-07-30T07:39:09;2.45;;;1.00;;
44197;SDS011;30157;55.512;37.764;2022-07-30T07:41:37;1.13;;;0.90;;
44197;SDS011;30157;55.512;37.764;2022-07-30T07:44:04;2.95;;;0.95;;
44197;SDS011;30157;55.512;37.764;2022-07-30T07:46:32;1.45;;;1.00;;
44197;SDS011;30157;55.512;37.764;2022-07-30T07:48:59;2.67;;;0.80;;
44197;SDS011;30157;55.512;37.764;2022-07-30T07:51:45;1.63;;;1.10;;
44197;SDS011;30157;55.512;37.764;2022-07-30T07:54:13;1.73;;;1.08;;
44197;SDS011;30157;55.512;37.764;2022-07-30T07:56:39;1.92;;;1.10;;
44197;SDS011;30157;55.512;37.764;2022-07-30T07:59:07;1.90;;;1.10;;
44197;SDS011;30157;55.512;37.764;2022-07-30T08:01:33;2.33;;;1.00;;
44197;SDS011;30157;55.512;37.764;2022-07-30T08:04:10;2.00;;;1.10;;
44197;SDS011;30157;55.512;37.764;2022-07-30T08:06:55;1.77;;;1.00;;
44197;SDS011;30157;55.512;37.764;2022-07-30T08:09:43;1.60;;;0.90;;
44197;SDS011;30157;55.512;37.764;2022-07-30T08:12:20;1.95;;;1.20;;
44197;SDS011;30157;55.512;37.764;2022-07-30T08:14:58;2.33;;;1.23;;
44197;SDS011;30157;55.512;37.764;2022-07-30T08:17:47;3.10;;;1.58;;
44197;SDS011;30157;55.512;37.764;2022-07-30T08:20:48;6.25;;;2.08;;
44197;SDS011;30157;55.512;37.764;2022-07-30T08:23:19;6.60;;;3.05;;
44197;SDS011;30157;55.512;37.764;2022-07-30T08:25:47;2.58;;;1.48;;
44197;SDS011;30157;55.512;37.764;2022-07-30T08:28:13;9.05;;;4.13;;
44197;SDS011;30157;55.512;37.764;2022-07-30T08:30:39;2.53;;;1.20;;
44197;SDS011;30157;55.512;37.764;2022-07-30T08:33:05;4.97;;;2.30;;
44197;SDS011;30157;55.512;37.764;2022-07-30T08:35:33;1.77;;;0.88;;
44197;SDS011;30157;55.512;37.764;2022-07-30T08:37:59;9.73;;;3.80;;
44197;SDS011;30157;55.512;37.764;2022-07-30T08:40:26;2.67;;;1.10;;
44197;SDS011;30157;55.512;37.764;2022-07-30T08:43:02;1.55;;;1.00;;
44197;SDS011;30157;55.512;37.764;2022-07-30T08:45:29;1.92;;;0.95;;
44197;SDS011;30157;55.512;37.764;2022-07-30T08:47:59;1.13;;;0.75;;
44197;SDS011;30157;55.512;37.764;2022-07-30T08:50:35;2.75;;;1.10;;
44197;SDS011;30157;55.512;37.764;2022-07-30T08:53:28;2.58;;;1.10;;
44197;SDS011;30157;55.512;37.764;2022-07-30T08:55:56;1.20;;;0.98;;
44197;SDS011;30157;55.512;37.764;2022-07-30T08:58:29;1.75;;;0.90;;
44197;SDS011;30157;55.512;37.764;2022-07-30T09:00:56;2.85;;;0.80;;
44197;SDS011;30157;55.512;37.764;2022-07-30T09:03:22;1.20;;;1.00;;
44197;SDS011;30157;55.512;37.764;2022-07-30T09:05:50;2.08;;;1.08;;
44197;SDS011;30157;55.512;37.764;2022-07-30T09:08:16;2.42;;;1.00;;
44197;SDS011;30157;55.512;37.764;2022-07-30T09:10:42;4.47;;;1.10;;
44197;SDS011;30157;55.512;37.764;2022-07-30T09:13:22;3.13;;;1.00;;
44197;SDS011;30157;55.512;37.764;2022-07-30T09:15:52;2.22;;;1.00;;
44197;SDS011;30157;55.512;37.764;2022-07-30T09:18:29;1.50;;;1.00;;
44197;SDS011;30157;55.512;37.764;2022-07-30T09:21:11;2.97;;;0.95;;
44197;SDS011;30157;55.512;37.764;2022-07-30T09:24:30;3.33;;;0.90;;
44197;SDS011;30157;55.512;37.764;2022-07-30T09:27:42;1.80;;;1.10;;
44197;SDS011;30157;55.512;37.764;2022-07-30T09:30:46;1.10;;;0.70;;
44197;SDS011;30157;55.512;37.764;2022-07-30T09:33:38;5.68;;;1.10;;
44197;SDS011;30157;55.512;37.764;2022-07-30T09:36:35;2.47;;;0.98;;
44197;SDS011;30157;55.512;37.764;2022-07-30T09:39:37;4.50;;;1.40;;
44197;SDS011;30157;55.512;37.764;2022-07-30T09:44:46;1.20;;;0.82;;
44197;SDS011;30157;55.512;37.764;2022-07-30T09:50:11;2.47;;;1.00;;
44197;SDS011;30157;55.512;37.764;2022-07-30T09:52:40;2.10;;;1.70;;
44197;SDS011;30157;55.512;37.764;2022-07-30T09:55:08;5.32;;;1.52;;
44197;SDS011;30157;55.512;37.764;2022-07-30T09:57:52;2.78;;;1.08;;
44197;SDS011;30157;55.512;37.764;2022-07-30T10:00:39;2.00;;;1.08;;
44197;SDS011;30157;55.512;37.764;2022-07-30T10:03:22;1.60;;;1.10;;
44197;SDS011;30157;55.512;37.764;2022-07-30T10:06:09;2.28;;;1.20;;
44197;SDS011;30157;55.512;37.764;2022-07-30T10:11:13;1.75;;;0.98;;
44197;SDS011;30157;55.512;37.764;2022-07-30T10:13:41;2.20;;;1.00;;
44197;SDS011;30157;55.512;37.764;2022-07-30T10:16:08;2.15;;;1.00;;
44197;SDS011;30157;55.512;37.764;2022-07-30T10:18:35;1.95;;;0.80;;
44197;SDS011;30157;55.512;37.764;2022-07-30T10:21:25;2.05;;;0.90;;
44197;SDS011;30157;55.512;37.764;2022-07-30T10:24:21;2.20;;;1.00;;
44197;SDS011;30157;55.512;37.764;2022-07-30T10:27:07;4.22;;;1.02;;
44197;SDS011;30157;55.512;37.764;2022-07-30T10:29:57;4.30;;;1.10;;
44197;SDS011;30157;55.512;37.764;2022-07-30T10:32:25;1.17;;;0.80;;
44197;SDS011;30157;55.512;37.764;2022-07-30T10:34:51;1.40;;;0.90;;
44197;SDS011;30157;55.512;37.764;2022-07-30T10:37:17;1.52;;;0.93;;
44197;SDS011;30157;55.512;37.764;2022-07-30T10:39:56;2.20;;;1.08;;
44197;SDS011;30157;55.512;37.764;2022-07-30T10:45:55;1.33;;;1.00;;
44197;SDS011;30157;55.512;37.764;2022-07-30T10:48:31;1.52;;;0.90;;
44197;SDS011;30157;55.512;37.764;2022-07-30T10:50:58;1.65;;;0.82;;
44197;SDS011;30157;55.512;37.764;2022-07-30T10:56:18;1.10;;;0.80;;
44197;SDS011;30157;55.512;37.764;2022-07-30T10:59:18;2.38;;;0.80;;
44197;SDS011;30157;55.512;37.764;2022-07-30T11:04:18;1.10;;;0.80;;
44197;SDS011;30157;55.512;37.764;2022-07-30T11:09:51;1.42;;;0.98;;
44197;SDS011;30157;55.512;37.764;2022-07-30T11:15:09;1.67;;;0.80;;
44197;SDS011;30157;55.512;37.764;2022-07-30T11:20:22;1.27;;;0.93;;
44197;SDS011;30157;55.512;37.764;2022-07-30T11:22:50;1.50;;;0.90;;
44197;SDS011;30157;55.512;37.764;2022-07-30T11:27:54;1.42;;;1.05;;
44197;SDS011;30157;55.512;37.764;2022-07-30T11:35:28;1.58;;;0.80;;
44197;SDS011;30157;55.512;37.764;2022-07-30T11:38:00;2.85;;;1.00;;
44197;SDS011;30157;55.512;37.764;2022-07-30T11:40:36;4.70;;;2.33;;
44197;SDS011;30157;55.512;37.764;2022-07-30T11:43:16;1.85;;;1.25;;
44197;SDS011;30157;55.512;37.764;2022-07-30T11:45:43;1.00;;;0.90;;
44197;SDS011;30157;55.512;37.764;2022-07-30T11:48:10;2.05;;;1.77;;
44197;SDS011;30157;55.512;37.764;2022-07-30T11:50:37;2.55;;;1.10;;
44197;SDS011;30157;55.512;37.764;2022-07-30T11:53:05;2.83;;;1.60;;
44197;SDS011;30157;55.512;37.764;2022-07-30T11:55:34;0.85;;;0.85;;
44197;SDS011;30157;55.512;37.764;2022-07-30T11:58:04;1.60;;;0.80;;
44197;SDS011;30157;55.512;37.764;2022-07-30T12:03:12;0.90;;;0.75;;
44197;SDS011;30157;55.512;37.764;2022-07-30T12:05:39;2.10;;;1.10;;
44197;SDS011;30157;55.512;37.764;2022-07-30T12:08:06;0.93;;;0.90;;
44197;SDS011;30157;55.512;37.764;2022-07-30T12:10:32;2.25;;;1.10;;
44197;SDS011;30157;55.512;37.764;2022-07-30T12:15:34;1.70;;;1.00;;
44197;SDS011;30157;55.512;37.764;2022-07-30T12:18:01;1.00;;;0.90;;
44197;SDS011;30157;55.512;37.764;2022-07-30T12:20:27;1.48;;;0.98;;
44197;SDS011;30157;55.512;37.764;2022-07-30T12:22:54;1.05;;;0.90;;
44197;SDS011;30157;55.512;37.764;2022-07-30T12:25:21;1.35;;;0.90;;
44197;SDS011;30157;55.512;37.764;2022-07-30T12:27:47;1.38;;;0.82;;
44197;SDS011;30157;55.512;37.764;2022-07-30T12:30:14;1.75;;;1.10;;
44197;SDS011;30157;55.512;37.764;2022-07-30T12:32:44;1.50;;;1.20;;
44197;SDS011;30157;55.512;37.764;2022-07-30T12:35:11;2.50;;;1.40;;
44197;SDS011;30157;55.512;37.764;2022-07-30T12:37:37;5.28;;;3.25;;
44197;SDS011;30157;55.512;37.764;2022-07-30T12:40:05;2.05;;;1.30;;
44197;SDS011;30157;55.512;37.764;2022-07-30T12:42:32;1.00;;;0.90;;
44197;SDS011;30157;55.512;37.764;2022-07-30T12:44:58;2.67;;;0.95;;
44197;SDS011;30157;55.512;37.764;2022-07-30T12:47:25;1.70;;;1.20;;
44197;SDS011;30157;55.512;37.764;2022-07-30T12:49:53;1.10;;;0.90;;
44197;SDS011;30157;55.512;37.764;2022-07-30T12:52:27;3.67;;;1.40;;
44197;SDS011;30157;55.512;37.764;2022-07-30T13:00:48;1.55;;;1.10;;
44197;SDS011;30157;55.512;37.764;2022-07-30T13:03:24;3.42;;;1.00;;
44197;SDS011;30157;55.512;37.764;2022-07-30T13:11:12;2.13;;;1.30;;
44197;SDS011;30157;55.512;37.764;2022-07-30T13:13:38;4.93;;;1.20;;
44197;SDS011;30157;55.512;37.764;2022-07-30T13:16:05;2.00;;;1.33;;
44197;SDS011;30157;55.512;37.764;2022-07-30T13:18:31;3.53;;;2.90;;
44197;SDS011;30157;55.512;37.764;2022-07-30T13:20:59;2.28;;;1.58;;
44197;SDS011;30157;55.512;37.764;2022-07-30T13:23:26;2.35;;;1.48;;
44197;SDS011;30157;55.512;37.764;2022-07-30T13:25:52;1.63;;;1.10;;
44197;SDS011;30157;55.512;37.764;2022-07-30T13:28:18;5.32;;;2.00;;
44197;SDS011;30157;55.512;37.764;2022-07-30T13:30:44;6.32;;;2.45;;
44197;SDS011;30157;55.512;37.764;2022-07-30T13:33:10;3.22;;;1.90;;
44197;SDS011;30157;55.512;37.764;2022-07-30T13:35:36;3.38;;;1.58;;
44197;SDS011;30157;55.512;37.764;2022-07-30T13:38:02;2.70;;;1.13;;
44197;SDS011;30157;55.512;37.764;2022-07-30T13:40:30;4.10;;;1.30;;
44197;SDS011;30157;55.512;37.764;2022-07-30T13:43:00;1.27;;;1.00;;
44197;SDS011;30157;55.512;37.764;2022-07-30T13:45:27;2.72;;;1.17;;
44197;SDS011;30157;55.512;37.764;2022-07-30T13:47:54;3.83;;;1.33;;
44197;SDS011;30157;55.512;37.764;2022-07-30T13:50:20;2.75;;;2.00;;
44197;SDS011;30157;55.512;37.764;2022-07-30T13:52:46;3.45;;;1.45;;
44197;SDS011;30157;55.512;37.764;2022-07-30T13:55:12;3.17;;;1.40;;
44197;SDS011;30157;55.512;37.764;2022-07-30T13:57:37;1.60;;;1.23;;
44197;SDS011;30157;55.512;37.764;2022-07-30T14:00:04;1.95;;;1.00;;
44197;SDS011;30157;55.512;37.764;2022-07-30T14:02:31;4.13;;;1.30;;
44197;SDS011;30157;55.512;37.764;2022-07-30T14:04:58;3.88;;;1.20;;
44197;SDS011;30157;55.512;37.764;2022-07-30T14:07:25;2.55;;;1.30;;
44197;SDS011;30157;55.512;37.764;2022-07-30T14:09:50;2.55;;;1.63;;
44197;SDS011;30157;55.512;37.764;2022-07-30T14:12:17;2.70;;;2.10;;
44197;SDS011;30157;55.512;37.764;2022-07-30T14:14:42;2.10;;;1.50;;
44197;SDS011;30157;55.512;37.764;2022-07-30T14:17:08;3.05;;;2.15;;
44197;SDS011;30157;55.512;37.764;2022-07-30T14:19:34;2.50;;;1.60;;
44197;SDS011;30157;55.512;37.764;2022-07-30T14:22:00;4.43;;;1.60;;
44197;SDS011;30157;55.512;37.764;2022-07-30T14:24:26;3.25;;;1.63;;
44197;SDS011;30157;55.512;37.764;2022-07-30T14:26:51;2.47;;;1.10;;
44197;SDS011;30157;55.512;37.764;2022-07-30T14:29:17;1.98;;;1.20;;
44197;SDS011;30157;55.512;37.764;2022-07-30T14:31:43;1.50;;;1.10;;
44197;SDS011;30157;55.512;37.764;2022-07-30T14:34:08;2.58;;;1.02;;
44197;SDS011;30157;55.512;37.764;2022-07-30T14:36:34;2.28;;;1.00;;
44197;SDS011;30157;55.512;37.764;2022-07-30T14:39:01;1.77;;;1.23;;
44197;SDS011;30157;55.512;37.764;2022-07-30T14:41:29;1.77;;;1.17;;
44197;SDS011;30157;55.512;37.764;2022-07-30T14:43:55;2.35;;;1.40;;
44197;SDS011;30157;55.512;37.764;2022-07-30T14:46:21;3.60;;;2.15;;
44197;SDS011;30157;55.512;37.764;2022-07-30T14:48:48;2.10;;;1.50;;
44197;SDS011;30157;55.512;37.764;2022-07-30T14:51:14;3.60;;;1.33;;
44197;SDS011;30157;55.512;37.764;2022-07-30T14:53:40;2.80;;;1.40;;
44197;SDS011;30157;55.512;37.764;2022-07-30T14:56:06;1.80;;;1.30;;
44197;SDS011;30157;55.512;37.764;2022-07-30T14:58:32;1.98;;;1.13;;
44197;SDS011;30157;55.512;37.764;2022-07-30T15:00:58;1.85;;;1.23;;
44197;SDS011;30157;55.512;37.764;2022-07-30T15:03:24;1.23;;;1.05;;
44197;SDS011;30157;55.512;37.764;2022-07-30T15:05:50;5.90;;;1.30;;
44197;SDS011;30157;55.512;37.764;2022-07-30T15:08:16;3.78;;;2.25;;
44197;SDS011;30157;55.512;37.764;2022-07-30T15:10:45;3.75;;;1.48;;
44197;SDS011;30157;55.512;37.764;2022-07-30T15:13:11;2.03;;;1.20;;
44197;SDS011;30157;55.512;37.764;2022-07-30T15:15:36;2.10;;;1.20;;
44197;SDS011;30157;55.512;37.764;2022-07-30T15:18:02;2.33;;;1.42;;
44197;SDS011;30157;55.512;37.764;2022-07-30T15:20:28;2.63;;;1.38;;
44197;SDS011;30157;55.512;37.764;2022-07-30T15:22:53;2.38;;;1.73;;
44197;SDS011;30157;55.512;37.764;2022-07-30T15:25:19;4.15;;;1.90;;
44197;SDS011;30157;55.512;37.764;2022-07-30T15:27:46;3.85;;;1.80;;
44197;SDS011;30157;55.512;37.764;2022-07-30T15:30:12;2.05;;;1.55;;
44197;SDS011;30157;55.512;37.764;2022-07-30T15:32:37;2.38;;;1.60;;
44197;SDS011;30157;55.512;37.764;2022-07-30T15:35:04;1.85;;;1.40;;
44197;SDS011;30157;55.512;37.764;2022-07-30T15:37:30;2.10;;;1.70;;
44197;SDS011;30157;55.512;37.764;2022-07-30T15:39:56;2.35;;;1.50;;
44197;SDS011;30157;55.512;37.764;2022-07-30T15:42:21;2.42;;;1.80;;
44197;SDS011;30157;55.512;37.764;2022-07-30T15:44:47;2.22;;;1.75;;
44197;SDS011;30157;55.512;37.764;2022-07-30T15:47:13;5.10;;;2.13;;
44197;SDS011;30157;55.512;37.764;2022-07-30T15:49:39;1.77;;;1.50;;